Погода Хамайна 2 недели

Халиско, Мексика

24 февраля-08 марта
  • 24февраля
    Сегодня
    +11°
    +30°
    Ясно и безоблачно
    ВремяПогодаТемператураВлажностьДавлениеВетер, м/сВероятность осадков
    00:00Ясно и безоблачно+17°C60 %634 мм1.0 м/с2 %
    03:00Ясно и безоблачно+11°C66 %632 мм2.1 м/с2 %
    06:00Ясно и безоблачно+10°C65 %633 мм2.0 м/с2 %
    09:00Ясно и безоблачно+14°C67 %636 мм2.0 м/с2 %
    12:00Ясно и безоблачно+24°C40 %638 мм0.1 м/с2 %
    15:00Ясно и безоблачно+29°C26 %637 мм2.4 м/с2 %
    18:00Практически безоблачно+28°C35 %636 мм2.3 м/с2 %
    21:00Облачно с прояснениями+21°C59 %635 мм2.0 м/с2 %
  • 25февраля
    Воскресенье
    +10°
    +30°
    Ясно и безоблачно
    ВремяПогодаТемператураВлажностьДавлениеВетер, м/сВероятность осадков
    00:00Практически безоблачно+18°C74 %636 мм0.3 м/с2 %
    03:00Небольшая облачность+14°C80 %634 мм1.5 м/с2 %
    06:00Практически безоблачно+12°C84 %634 мм1.2 м/с2 %
    09:00Ясно и безоблачно+15°C64 %637 мм0.7 м/с2 %
    12:00Практически безоблачно+25°C35 %639 мм1.5 м/с2 %
    15:00Ясно и безоблачно+29°C25 %637 мм2.7 м/с2 %
    18:00Ясно и безоблачно+29°C28 %636 мм2.3 м/с2 %
    21:00Ясно и безоблачно+22°C57 %636 мм1.4 м/с2 %
  • 26февраля
    Понедельник
    +11°
    +31°
    Ясно и безоблачно
    ВремяПогодаТемператураВлажностьДавлениеВетер, м/сВероятность осадков
    00:00Ясно и безоблачно+18°C65 %636 мм1.0 м/с2 %
    03:00Ясно и безоблачно+14°C70 %635 мм1.2 м/с2 %
    06:00Ясно и безоблачно+12°C78 %634 мм1.6 м/с2 %
    09:00Ясно и безоблачно+15°C63 %637 мм0.7 м/с2 %
    12:00Ясно и безоблачно+25°C38 %639 мм1.9 м/с2 %
    15:00Ясно и безоблачно+29°C27 %637 мм2.7 м/с2 %
    18:00Ясно и безоблачно+29°C28 %636 мм2.3 м/с2 %
    21:00Ясно и безоблачно+22°C56 %635 мм2.3 м/с2 %
  • 27февраля
    Вторник
    +11°
    +30°
    Ясно и безоблачно
    ВремяПогодаТемператураВлажностьДавлениеВетер, м/сВероятность осадков
    00:00Ясно и безоблачно+19°C79 %635 мм1.9 м/с2 %
    03:00Ясно и безоблачно+17°C73 %634 мм1.2 м/с2 %
    06:00Ясно и безоблачно+12°C85 %633 мм1.6 м/с2 %
    09:00Ясно и безоблачно+16°C66 %636 мм0.9 м/с2 %
    12:00Ясно и безоблачно+25°C36 %638 мм2.0 м/с2 %
    15:00Ясно и безоблачно+29°C25 %636 мм3.4 м/с2 %
    18:00Ясно и безоблачно+29°C28 %635 мм2.3 м/с2 %
    21:00Ясно и безоблачно+22°C52 %634 мм2.9 м/с2 %
  • 28февраля
    Среда
    +13°
    +30°
    Небольшая облачность
    ВремяПогодаТемператураВлажностьДавлениеВетер, м/сВероятность осадков
    00:00Ясно и безоблачно+19°C56 %634 мм2.4 м/с2 %
    03:00Ясно и безоблачно+17°C59 %633 мм1.2 м/с2 %
    06:00Ясно и безоблачно+12°C72 %632 мм1.5 м/с2 %
    09:00Ясно и безоблачно+15°C51 %635 мм0.7 м/с2 %
    12:00Небольшая облачность+25°C26 %637 мм1.7 м/с2 %
    15:00Небольшая облачность+29°C17 %636 мм2.9 м/с2 %
    18:00Небольшая облачность+29°C21 %635 мм2.5 м/с2 %
    21:00Практически безоблачно+23°C48 %635 мм2.5 м/с2 %
Мы используем cookies
Соглашаюсь